Scholes International At Galveston Airport
KGLS : now visible

Airfield :











YOU CAN JOIN US ON...

 
LOGIN :

Register | Disclaimer

   EN    FR    IT 

 









Legend :    VFR   Marginal VFR   IFR   Intensive IFR   Very Intensive IFR
Visi :
Ceiling :
>= 8 km
>= 3000ft
5 to 8 km
1000 to 3000 ft
1500m to 5 km
500 to 1000 ft
800 to 1500m
200 to 500 ft
< 800m
< 200 ft
Symbols :   Thunderstorms  Fog  Heavy snow  Heavy precipitations  Wind > 20 kt






- Airport Elevation : 6 ft
- IATA code : GLS


KGLS - Scholes International At Galveston

CURRENT METAR :
  • 190152Z AUTO 00000KT 9SM CLR 17/14 A2996 RMK AO2 SLP144 T01670144

EXPIRED METARs :
  • 190052Z AUTO 17005KT 9SM CLR 16/14 A2993 RMK AO2 SLP133 T01610139
  • 182352Z AUTO 18005KT 9SM CLR 17/14 A2992 RMK AO2 SLP132 T01670144 10222 20167 53006

TAF KGLS
Valid from the 19 at 00:00 until the 20 at 00:00 UTC


182320Z 1900/1924 VRB04KT P6SM SKC
FM191800 17006KT P6SM SKC



MET'MAP, your aeronautical weather chart ! - Copyright ORBIFLY December 2007 - Disclaimer

ORBIFLY MET'MAP TEAM :

Programming & Development : Alexandra Zaïnal
Concept & Development : Baudouin d'Aumeries
Co-Development & Prog : Marc-Olivier Méhu
Technical & hardware support : Manuel Goepfert

Contact : metmap@orbifly.com




SOURCES & CREDITS :

   NOAA       Earth
Advisory